Time;durP1;ratioP1;P1;durP2;ratioP2;P2;SDS_P1;SDS_P2;PMS_P1;PMS_P2;Temp;Humidity;BMP_temperature;BMP_pressure;BME280_temperature;BME280_humidity;BME280_pressure;Samples;Min_cycle;Max_cycle;Signal;HPM_P1;HPM_P2
2022/05/30 00:00:36;;;;;;;1.13;1.00;;;7.30;96.20;;;;;;5099334;28;20310;-85
2022/05/30 00:03:03;;;;;;;1.30;1.20;;;7.30;96.60;;;;;;5088756;28;20194;-83
2022/05/30 00:05:30;;;;;;;1.20;1.10;;;7.10;96.90;;;;;;5088770;28;20290;-84
2022/05/30 00:07:59;;;;;;;1.42;0.90;;;7.00;96.60;;;;;;5089539;28;20206;-84
2022/05/30 00:10:27;;;;;;;1.33;1.27;;;6.90;97.10;;;;;;5088967;28;20324;-83
2022/05/30 00:12:56;;;;;;;2.20;0.65;;;6.80;97.50;;;;;;5101171;28;20523;-84
2022/05/30 00:15:24;;;;;;;1.25;0.65;;;6.80;98.20;;;;;;5095355;28;20194;-84
2022/05/30 00:17:55;;;;;;;0.60;0.60;;;6.90;98.50;;;;;;5111313;28;20296;-84
2022/05/30 00:20:23;;;;;;;0.88;0.75;;;7.00;98.40;;;;;;5105420;28;20908;-83
2022/05/30 00:22:51;;;;;;;2.63;1.08;;;6.90;98.50;;;;;;5102938;28;20227;-84
2022/05/30 00:25:20;;;;;;;1.35;1.25;;;6.90;98.80;;;;;;5106022;28;20569;-83
2022/05/30 00:27:48;;;;;;;1.30;1.00;;;6.90;99.00;;;;;;5099505;28;20198;-83
2022/05/30 00:30:17;;;;;;;0.73;0.73;;;7.70;99.00;;;;;;5096295;28;20642;-84
2022/05/30 00:32:45;;;;;;;1.33;0.95;;;7.00;98.60;;;;;;5106769;28;20194;-84
2022/05/30 00:35:14;;;;;;;0.65;0.65;;;6.90;97.50;;;;;;5091918;28;20563;-83
2022/05/30 00:37:42;;;;;;;1.42;1.15;;;6.90;97.50;;;;;;5107582;28;20202;-83
2022/05/30 00:40:11;;;;;;;2.13;1.05;;;6.80;97.10;;;;;;5113878;27;20281;-83
2022/05/30 00:42:40;;;;;;;1.30;1.20;;;6.80;96.70;;;;;;5109288;28;20585;-84
2022/05/30 00:45:09;;;;;;;1.00;0.90;;;6.70;98.40;;;;;;5091700;28;20203;-83
2022/05/30 00:47:37;;;;;;;1.05;1.05;;;6.70;98.10;;;;;;5110024;28;20190;-83
2022/05/30 00:50:08;;;;;;;1.35;1.25;;;6.60;99.30;;;;;;5105887;28;20697;-83
2022/05/30 00:52:39;;;;;;;1.00;0.90;;;6.70;98.40;;;;;;5098103;28;20194;-83
2022/05/30 00:55:09;;;;;;;1.20;0.80;;;6.80;98.20;;;;;;5111181;28;20204;-84
2022/05/30 00:57:38;;;;;;;3.25;1.77;;;6.70;97.40;;;;;;5105998;28;20206;-84
2022/05/30 01:00:11;;;;;;;0.98;0.88;;;6.70;96.70;;;;;;5093635;28;20230;-84
2022/05/30 01:02:40;;;;;;;1.25;1.15;;;6.70;96.90;;;;;;5101135;28;20197;-83
2022/05/30 01:07:54;;;;;;;0.90;0.90;;;6.50;98.40;;;;;;5098286;28;20217;-84
2022/05/30 01:10:23;;;;;;;0.98;0.98;;;6.60;97.80;;;;;;5110633;28;20237;-83
2022/05/30 01:12:53;;;;;;;1.05;1.05;;;6.60;97.80;;;;;;5100315;28;20205;-83
2022/05/30 01:15:25;;;;;;;1.38;1.13;;;6.60;97.80;;;;;;5111411;27;20204;-84
2022/05/30 01:17:58;;;;;;;1.23;1.15;;;6.60;98.00;;;;;;5099647;28;20197;-83
2022/05/30 01:20:41;;;;;;;1.20;1.10;;;6.60;97.80;;;;;;5107906;28;20231;-83
2022/05/30 01:23:29;;;;;;;2.17;1.10;;;6.60;98.20;;;;;;5091845;28;20205;-83
2022/05/30 01:26:25;;;;;;;1.13;1.02;;;6.60;98.40;;;;;;5091527;28;20217;-84
2022/05/30 01:29:01;;;;;;;1.20;1.10;;;6.50;98.50;;;;;;5097990;28;20711;-83
2022/05/30 01:31:30;;;;;;;0.85;0.80;;;6.60;98.60;;;;;;5092206;28;20198;-84
2022/05/30 01:33:59;;;;;;;1.35;0.98;;;6.50;98.50;;;;;;5111443;28;20220;-83
2022/05/30 01:36:30;;;;;;;1.85;1.75;;;6.50;98.50;;;;;;5110995;28;20616;-83
2022/05/30 01:38:58;;;;;;;1.70;0.85;;;6.30;98.50;;;;;;5112191;28;20198;-83
2022/05/30 01:41:27;;;;;;;1.50;1.23;;;6.40;98.90;;;;;;5106483;28;20196;-84
2022/05/30 01:43:57;;;;;;;1.98;1.15;;;6.40;98.40;;;;;;5098713;27;20195;-84
2022/05/30 01:46:26;;;;;;;4.35;1.65;;;6.40;98.00;;;;;;5098169;28;20255;-83
2022/05/30 01:48:54;;;;;;;2.58;2.17;;;6.40;98.30;;;;;;5101688;28;20205;-84
2022/05/30 01:51:23;;;;;;;2.42;1.52;;;6.40;99.10;;;;;;5095158;28;20200;-83
2022/05/30 01:53:51;;;;;;;2.28;1.65;;;6.30;99.40;;;;;;5108210;28;20191;-83
2022/05/30 01:56:19;;;;;;;2.00;1.90;;;6.30;99.90;;;;;;5096379;28;20280;-83
2022/05/30 01:58:46;;;;;;;1.75;1.63;;;6.30;99.90;;;;;;5102798;28;20559;-82
2022/05/30 02:01:20;;;;;;;1.10;1.00;;;6.20;99.90;;;;;;5091144;28;20226;-83
2022/05/30 02:03:48;;;;;;;2.47;1.23;;;6.30;99.90;;;;;;5092820;28;20202;-82
2022/05/30 02:06:15;;;;;;;3.33;2.38;;;6.40;99.90;;;;;;5094659;28;20277;-83
2022/05/30 02:08:42;;;;;;;1.20;1.10;;;6.30;99.90;;;;;;5090421;27;20271;-84
2022/05/30 02:11:10;;;;;;;1.58;1.17;;;6.40;99.90;;;;;;5106848;28;20309;-84
2022/05/30 02:13:38;;;;;;;1.58;1.48;;;6.40;99.60;;;;;;5107187;28;20201;-82
2022/05/30 02:18:51;;;;;;;1.15;1.13;;;6.40;99.70;;;;;;5093696;28;20215;-83
2022/05/30 02:21:19;;;;;;;3.30;1.55;;;6.40;99.90;;;;;;5108434;28;20252;-83
2022/05/30 02:23:45;;;;;;;4.32;3.15;;;6.50;99.60;;;;;;5110804;28;20684;-83
2022/05/30 02:26:12;;;;;;;1.25;0.90;;;6.50;99.90;;;;;;5110229;28;20277;-83
2022/05/30 02:28:39;;;;;;;0.93;0.73;;;6.60;99.80;;;;;;5109759;27;20237;-82
2022/05/30 02:31:06;;;;;;;2.28;1.38;;;6.50;99.40;;;;;;5107814;27;20245;-83
2022/05/30 02:39:04;;;;;;;1.67;1.50;;;6.60;99.80;;;;;;5106380;28;20258;-82
2022/05/30 02:41:31;;;;;;;1.35;1.20;;;6.60;99.00;;;;;;5104369;28;20194;-82
2022/05/30 02:43:58;;;;;;;0.82;0.82;;;6.60;98.80;;;;;;5109475;28;20232;-82
2022/05/30 02:46:25;;;;;;;1.42;1.33;;;6.60;98.70;;;;;;5109522;27;20208;-82
2022/05/30 02:48:52;;;;;;;0.50;0.50;;;6.60;99.00;;;;;;5095964;28;20469;-82
2022/05/30 02:51:20;;;;;;;1.13;0.98;;;6.50;99.40;;;;;;5102865;28;20316;-82
2022/05/30 02:53:47;;;;;;;2.95;1.80;;;6.70;99.80;;;;;;5107665;28;20194;-82
2022/05/30 02:56:16;;;;;;;1.90;1.40;;;6.40;99.80;;;;;;5092348;28;20562;-82
2022/05/30 02:58:44;;;;;;;1.42;1.25;;;6.30;98.50;;;;;;5103907;28;20202;-82
2022/05/30 03:01:11;;;;;;;2.47;1.38;;;6.30;98.70;;;;;;5098447;28;20264;-81
2022/05/30 03:03:39;;;;;;;2.03;1.83;;;6.30;98.40;;;;;;5089216;28;20256;-82
2022/05/30 03:06:06;;;;;;;0.93;0.93;;;6.20;98.70;;;;;;5088663;28;20199;-81
2022/05/30 03:08:34;;;;;;;1.40;1.27;;;6.00;99.40;;;;;;5101243;28;20244;-82
2022/05/30 03:11:01;;;;;;;3.95;3.03;;;6.30;98.70;;;;;;5104183;28;20222;-82
2022/05/30 03:13:29;;;;;;;1.90;1.60;;;6.20;99.10;;;;;;5097802;28;20210;-81
2022/05/30 03:15:58;;;;;;;1.40;0.77;;;6.30;99.60;;;;;;5095773;28;20195;-82
2022/05/30 03:18:25;;;;;;;2.10;1.65;;;6.40;99.60;;;;;;5098600;28;20213;-82
2022/05/30 03:20:52;;;;;;;1.23;1.13;;;6.10;99.90;;;;;;5109321;28;20325;-82
2022/05/30 03:23:18;;;;;;;1.52;1.42;;;6.10;99.60;;;;;;5106514;28;20373;-81
2022/05/30 03:25:47;;;;;;;0.88;0.88;;;6.10;99.90;;;;;;5108885;28;20240;-82
2022/05/30 03:28:14;;;;;;;2.67;1.70;;;6.10;99.90;;;;;;5093868;28;20689;-81
2022/05/30 03:30:41;;;;;;;1.42;1.30;;;6.00;99.90;;;;;;5090977;28;20497;-81
2022/05/30 03:33:10;;;;;;;1.25;1.02;;;5.80;99.80;;;;;;5107201;28;20202;-82
2022/05/30 03:35:37;;;;;;;1.70;1.60;;;5.70;99.90;;;;;;5105796;28;20194;-81
2022/05/30 03:38:08;;;;;;;1.30;1.23;;;5.70;99.90;;;;;;5106406;28;20256;-81
2022/05/30 03:40:37;;;;;;;1.35;1.23;;;5.70;99.90;;;;;;5099985;28;20198;-81
2022/05/30 03:43:07;;;;;;;0.70;0.70;;;5.80;99.90;;;;;;5108637;28;20190;-82
2022/05/30 03:45:34;;;;;;;1.80;1.65;;;5.80;99.90;;;;;;5108198;28;20201;-81
2022/05/30 03:48:01;;;;;;;1.90;1.38;;;5.80;99.90;;;;;;5090125;28;20568;-81
2022/05/30 03:50:28;;;;;;;1.40;0.80;;;5.80;99.60;;;;;;5108165;28;20264;-82
2022/05/30 03:52:55;;;;;;;1.52;1.42;;;5.90;99.50;;;;;;5108339;28;20255;-81
2022/05/30 03:55:23;;;;;;;1.30;1.25;;;5.80;99.30;;;;;;5108238;28;20229;-82
2022/05/30 03:57:52;;;;;;;1.48;1.38;;;;;;;;;;5105776;28;20189;-83
2022/05/30 04:00:23;;;;;;;1.02;0.98;;;5.70;99.90;;;;;;5108766;28;20210;-82
2022/05/30 04:02:49;;;;;;;1.67;1.40;;;5.70;99.90;;;;;;5090486;28;20242;-81
2022/05/30 04:05:17;;;;;;;0.63;0.63;;;5.70;99.90;;;;;;5094588;28;20285;-81
2022/05/30 04:07:44;;;;;;;1.50;1.15;;;5.70;99.90;;;;;;5090963;28;20349;-81
2022/05/30 04:10:11;;;;;;;0.90;0.90;;;5.60;99.90;;;;;;5092621;28;20220;-82
2022/05/30 04:12:38;;;;;;;0.70;0.70;;;5.80;99.90;;;;;;5097660;28;20278;-82
2022/05/30 04:15:09;;;;;;;3.17;1.48;;;5.80;99.90;;;;;;5096208;28;20222;-81
2022/05/30 04:17:38;;;;;;;1.60;1.50;;;5.90;99.90;;;;;;5091354;28;20247;-81
2022/05/30 04:20:06;;;;;;;1.30;1.17;;;5.90;99.90;;;;;;5108525;28;20202;-81
2022/05/30 04:22:33;;;;;;;2.05;1.95;;;6.00;99.90;;;;;;5098129;28;21009;-81
2022/05/30 04:25:01;;;;;;;2.30;1.38;;;6.00;99.90;;;;;;5088507;28;20312;-81
2022/05/30 04:27:32;;;;;;;1.88;1.77;;;6.10;99.90;;;;;;5097112;28;20382;-81
2022/05/30 04:29:59;;;;;;;1.65;1.30;;;6.10;99.90;;;;;;5107998;28;20942;-81
2022/05/30 04:32:26;;;;;;;1.67;1.13;;;6.20;99.90;;;;;;5091770;28;20557;-82
2022/05/30 04:34:54;;;;;;;1.77;1.13;;;6.20;99.90;;;;;;5089052;28;20268;-81
2022/05/30 04:37:21;;;;;;;1.58;1.30;;;6.20;99.90;;;;;;5104228;28;20225;-81
2022/05/30 04:39:48;;;;;;;5.10;1.25;;;7.40;99.90;;;;;;5107796;28;20309;-81
2022/05/30 04:42:15;;;;;;;1.17;1.05;;;6.40;99.90;;;;;;5104597;28;20276;-81
2022/05/30 04:44:42;;;;;;;2.15;1.60;;;6.50;99.90;;;;;;5093407;28;20199;-81
2022/05/30 04:47:11;;;;;;;1.30;1.20;;;6.40;99.90;;;;;;5092872;28;20745;-81
2022/05/30 04:49:38;;;;;;;1.70;1.60;;;6.60;99.90;;;;;;5087484;28;20206;-82
2022/05/30 04:52:08;;;;;;;2.60;2.13;;;6.70;99.90;;;;;;5087596;28;20765;-81
2022/05/30 04:54:35;;;;;;;1.73;1.63;;;6.70;99.90;;;;;;5086925;28;20664;-81
2022/05/30 04:57:06;;;;;;;4.80;2.70;;;6.80;99.90;;;;;;5086225;28;20201;-81
2022/05/30 04:59:33;;;;;;;1.80;1.70;;;6.90;99.90;;;;;;5087772;28;20601;-82
2022/05/30 05:02:00;;;;;;;1.17;1.08;;;7.10;99.90;;;;;;5087831;28;20198;-81
2022/05/30 05:04:27;;;;;;;1.27;1.17;;;7.20;99.90;;;;;;5091419;28;20657;-81
2022/05/30 05:06:53;;;;;;;1.27;1.27;;;7.30;99.90;;;;;;5094831;28;20281;-82
2022/05/30 05:09:31;;;;;;;2.28;2.08;;;7.40;99.90;;;;;;5096750;28;20264;-82
2022/05/30 05:11:58;;;;;;;1.25;1.25;;;7.50;99.90;;;;;;5102053;28;20302;-82
2022/05/30 05:14:25;;;;;;;1.70;1.58;;;7.50;99.90;;;;;;5094460;28;20198;-83
2022/05/30 05:16:51;;;;;;;0.98;0.98;;;7.70;99.90;;;;;;5110814;28;20229;-83
2022/05/30 05:19:18;;;;;;;1.70;1.60;;;8.00;99.50;;;;;;5092453;28;20244;-82
2022/05/30 05:21:46;;;;;;;1.30;1.20;;;8.10;98.60;;;;;;5101785;28;20190;-83
2022/05/30 05:24:15;;;;;;;1.30;1.20;;;8.30;98.40;;;;;;5094521;28;20206;-83
2022/05/30 05:26:49;;;;;;;2.00;1.90;;;8.50;97.70;;;;;;5100922;28;20190;-83
2022/05/30 05:29:17;;;;;;;1.67;1.55;;;8.60;97.00;;;;;;5095604;28;20229;-83
2022/05/30 05:31:45;;;;;;;1.65;1.13;;;8.70;96.40;;;;;;5111610;28;20297;-82
2022/05/30 05:34:13;;;;;;;4.35;1.55;;;9.00;95.10;;;;;;5106864;28;20238;-84
2022/05/30 05:36:42;;;;;;;1.75;1.65;;;8.80;95.00;;;;;;5096824;28;20277;-83
2022/05/30 05:39:10;;;;;;;1.35;1.30;;;9.00;95.00;;;;;;5111395;28;20280;-83
2022/05/30 05:41:37;;;;;;;3.53;1.77;;;9.10;94.30;;;;;;5110989;28;20517;-83
2022/05/30 05:44:05;;;;;;;1.05;1.02;;;9.20;95.00;;;;;;5111531;28;20619;-83
2022/05/30 05:46:32;;;;;;;1.27;1.17;;;9.20;94.60;;;;;;5093702;28;20261;-83
2022/05/30 05:49:00;;;;;;;2.20;1.42;;;9.20;94.70;;;;;;5106877;28;20190;-83
2022/05/30 05:51:28;;;;;;;3.45;1.95;;;9.30;95.50;;;;;;5106215;28;20698;-84
2022/05/30 05:53:55;;;;;;;2.55;1.80;;;9.30;95.90;;;;;;5095272;28;20775;-83
2022/05/30 05:56:24;;;;;;;2.03;1.92;;;10.50;95.60;;;;;;5087204;27;21861;-83
2022/05/30 05:58:51;;;;;;;1.73;1.50;;;9.40;96.00;;;;;;5100285;28;20963;-84
2022/05/30 06:01:23;;;;;;;1.35;1.25;;;9.40;95.70;;;;;;5102226;27;20619;-84
2022/05/30 06:03:52;;;;;;;2.93;0.93;;;9.60;94.30;;;;;;5097959;28;20308;-83
2022/05/30 06:06:19;;;;;;;1.37;1.20;;;9.80;94.20;;;;;;5106234;28;20676;-83
2022/05/30 06:08:46;;;;;;;2.23;2.13;;;9.90;94.70;;;;;;5109788;28;21236;-83
2022/05/30 06:11:14;;;;;;;1.30;1.20;;;9.70;94.70;;;;;;5106170;28;21331;-83
2022/05/30 06:13:43;;;;;;;1.50;1.00;;;9.70;94.90;;;;;;5099142;28;21077;-83
2022/05/30 06:16:13;;;;;;;1.00;0.90;;;9.60;95.10;;;;;;5090763;28;21241;-83
2022/05/30 06:18:42;;;;;;;1.17;1.17;;;9.70;95.20;;;;;;5104623;28;20667;-84
2022/05/30 06:21:10;;;;;;;1.77;1.67;;;9.80;95.40;;;;;;5103962;28;20729;-83
2022/05/30 06:23:37;;;;;;;1.87;1.77;;;9.80;95.20;;;;;;5103938;28;20654;-83
2022/05/30 06:26:07;;;;;;;1.83;1.67;;;9.90;95.40;;;;;;5098110;28;20625;-83
2022/05/30 06:28:35;;;;;;;3.17;2.33;;;9.90;94.60;;;;;;5093806;28;20715;-83
2022/05/30 06:31:07;;;;;;;1.87;1.40;;;9.90;94.70;;;;;;5109149;28;20708;-83
2022/05/30 06:33:35;;;;;;;1.67;1.13;;;10.20;93.40;;;;;;5111824;28;21024;-83
2022/05/30 06:36:05;;;;;;;1.40;1.30;;;10.20;93.40;;;;;;5095823;28;20654;-83
2022/05/30 06:38:32;;;;;;;0.87;0.87;;;10.30;93.30;;;;;;5102197;28;20659;-83
2022/05/30 06:41:08;;;;;;;2.20;2.03;;;10.40;93.30;;;;;;5101746;28;20653;-83
2022/05/30 06:43:37;;;;;;;1.63;1.53;;;10.30;93.30;;;;;;5111661;28;20699;-83
2022/05/30 06:46:04;;;;;;;8.83;2.40;;;10.40;93.20;;;;;;5110795;28;20612;-84
2022/05/30 06:48:32;;;;;;;2.13;1.83;;;10.70;93.10;;;;;;5093653;28;20730;-83
2022/05/30 06:50:59;;;;;;;1.77;1.67;;;10.50;93.20;;;;;;5107582;28;21102;-83
2022/05/30 06:53:27;;;;;;;1.40;1.30;;;10.50;92.90;;;;;;5107538;28;20672;-83
2022/05/30 06:55:54;;;;;;;2.90;2.10;;;10.40;92.90;;;;;;5094623;28;20664;-83
2022/05/30 06:58:21;;;;;;;3.43;2.33;;;10.60;93.30;;;;;;5098881;28;20659;-82
2022/05/30 07:00:49;;;;;;;1.50;1.40;;;10.80;93.50;;;;;;5098890;28;20651;-83
2022/05/30 07:03:17;;;;;;;1.70;1.60;;;11.00;92.60;;;;;;5092125;28;20649;-83
2022/05/30 07:05:45;;;;;;;3.10;1.87;;;11.00;91.90;;;;;;5103764;28;20660;-83
2022/05/30 07:08:13;;;;;;;2.30;2.20;;;10.80;91.90;;;;;;5107186;28;20676;-83
2022/05/30 07:10:42;;;;;;;2.83;2.37;;;11.00;92.00;;;;;;5106312;28;20619;-83
2022/05/30 07:13:10;;;;;;;1.67;1.57;;;11.20;91.90;;;;;;5111266;28;20666;-83
2022/05/30 07:15:37;;;;;;;5.00;2.10;;;11.20;91.70;;;;;;5106594;28;20669;-83
2022/05/30 07:18:12;;;;;;;2.50;1.73;;;11.30;91.90;;;;;;5098812;28;20748;-83
2022/05/30 07:20:39;;;;;;;2.10;1.93;;;12.10;92.10;;;;;;5099545;28;20668;-83
2022/05/30 07:23:07;;;;;;;2.23;2.03;;;11.80;90.70;;;;;;5110982;28;20618;-83
2022/05/30 07:25:36;;;;;;;2.60;2.40;;;11.90;90.90;;;;;;5107652;28;20734;-84
2022/05/30 07:28:06;;;;;;;3.17;1.47;;;12.40;90.00;;;;;;5094270;28;20624;-83
2022/05/30 07:30:35;;;;;;;3.20;1.80;;;12.50;90.00;;;;;;5108202;28;20624;-82
2022/05/30 07:33:02;;;;;;;1.27;1.17;;;12.00;87.60;;;;;;5107630;28;20660;-83
2022/05/30 07:35:29;;;;;;;2.57;2.20;;;12.10;88.30;;;;;;5089586;28;20622;-83
2022/05/30 07:37:56;;;;;;;1.17;1.00;;;12.00;88.60;;;;;;5099843;28;20662;-83
2022/05/30 07:40:23;;;;;;;1.67;1.57;;;12.10;88.60;;;;;;5097878;28;21036;-83
2022/05/30 07:42:50;;;;;;;1.30;1.20;;;12.30;88.00;;;;;;5100124;28;20622;-84
2022/05/30 07:45:19;;;;;;;1.53;1.43;;;12.30;87.70;;;;;;5098984;28;20626;-83
2022/05/30 07:47:45;;;;;;;1.27;1.17;;;12.30;88.30;;;;;;5102183;28;20672;-83
2022/05/30 07:50:12;;;;;;;1.77;1.67;;;12.40;86.10;;;;;;5108315;28;20661;-84
2022/05/30 07:52:39;;;;;;;1.90;1.80;;;12.40;84.70;;;;;;5109668;28;20693;-83
2022/05/30 07:55:07;;;;;;;1.40;1.30;;;12.60;85.60;;;;;;5108676;28;20714;-83
2022/05/30 07:57:53;;;;;;;1.50;1.40;;;12.60;84.00;;;;;;5098930;28;20623;-83
2022/05/30 08:00:23;;;;;;;1.30;1.20;;;12.90;85.20;;;;;;5099898;28;20622;-83
2022/05/30 08:02:50;;;;;;;2.00;1.27;;;12.80;83.30;;;;;;5101457;28;20622;-83
2022/05/30 08:05:19;;;;;;;0.97;0.97;;;13.20;82.50;;;;;;5105864;28;20653;-83
2022/05/30 08:07:47;;;;;;;5.23;1.50;;;13.20;80.90;;;;;;5101369;28;20619;-83
2022/05/30 08:10:16;;;;;;;0.93;0.87;;;13.00;79.80;;;;;;5106364;28;21085;-83
2022/05/30 08:12:43;;;;;;;1.07;0.90;;;13.00;77.10;;;;;;5097372;28;20693;-84
2022/05/30 08:15:11;;;;;;;1.10;1.10;;;13.10;77.90;;;;;;5102308;28;20767;-83
2022/05/30 08:17:40;;;;;;;1.50;1.40;;;13.30;77.40;;;;;;5091185;28;20619;-84
2022/05/30 08:20:09;;;;;;;1.53;1.40;;;13.30;78.30;;;;;;5099499;28;20627;-83
2022/05/30 08:22:36;;;;;;;1.73;1.27;;;13.40;79.90;;;;;;5097460;28;21258;-83
2022/05/30 08:25:05;;;;;;;1.07;1.00;;;13.20;77.40;;;;;;5099003;28;21104;-83
2022/05/30 08:27:32;;;;;;;1.80;1.13;;;13.80;78.40;;;;;;5100868;28;20619;-84
2022/05/30 08:30:00;;;;;;;2.73;1.57;;;14.00;76.90;;;;;;5111053;28;20670;-83
2022/05/30 08:32:34;;;;;;;1.23;1.13;;;14.10;77.20;;;;;;5096176;28;20668;-83
2022/05/30 08:35:03;;;;;;;1.67;0.90;;;14.20;75.60;;;;;;5104279;28;20754;-84
2022/05/30 08:37:31;;;;;;;1.13;1.03;;;14.30;73.60;;;;;;5104880;28;20723;-83
2022/05/30 08:42:44;;;;;;;1.60;1.50;;;14.40;72.10;;;;;;5095476;28;21008;-83
2022/05/30 08:45:16;;;;;;;1.03;0.90;;;14.50;71.90;;;;;;5094285;28;20624;-83
2022/05/30 08:47:48;;;;;;;1.47;1.03;;;14.90;72.50;;;;;;5096488;28;20922;-86
2022/05/30 08:50:26;;;;;;;1.20;0.90;;;14.90;70.70;;;;;;5100165;28;20722;-84
2022/05/30 08:53:41;;;;;;;1.67;1.17;;;14.70;70.20;;;;;;5113720;28;20663;-83
2022/05/30 08:56:18;;;;;;;0.80;0.80;;;14.70;67.80;;;;;;5102543;28;20619;-83
2022/05/30 08:59:01;;;;;;;0.70;0.70;;;15.10;70.10;;;;;;5101656;28;20626;-83
2022/05/30 09:01:32;;;;;;;0.70;0.70;;;14.80;66.80;;;;;;5094447;28;20654;-84
2022/05/30 09:04:09;;;;;;;0.73;0.63;;;14.70;64.40;;;;;;5106194;28;20627;-84
2022/05/30 09:06:43;;;;;;;0.70;0.63;;;14.80;66.80;;;;;;5096249;28;20734;-83
2022/05/30 09:09:17;;;;;;;0.90;0.90;;;15.10;64.10;;;;;;5094431;28;21008;-85
2022/05/30 09:11:48;;;;;;;0.40;0.40;;;15.10;63.00;;;;;;5114393;28;20991;-83
2022/05/30 09:14:20;;;;;;;0.70;0.50;;;15.10;62.10;;;;;;5104271;28;20617;-83
2022/05/30 09:16:52;;;;;;;1.00;1.00;;;15.30;62.40;;;;;;5111409;28;20631;-84
2022/05/30 09:19:23;;;;;;;1.90;0.60;;;15.40;62.90;;;;;;5105485;28;20631;-83
2022/05/30 09:21:54;;;;;;;0.57;0.57;;;15.30;61.20;;;;;;5091872;28;20628;-83
2022/05/30 09:24:22;;;;;;;1.70;1.13;;;15.80;61.50;;;;;;5096597;28;20649;-83
2022/05/30 09:26:48;;;;;;;1.47;0.70;;;15.70;59.40;;;;;;5100512;27;20627;-84
2022/05/30 09:29:20;;;;;;;0.60;0.60;;;16.00;60.20;;;;;;5111303;28;20620;-83
2022/05/30 09:31:56;;;;;;;0.87;0.70;;;16.40;58.20;;;;;;5102358;28;20758;-83
2022/05/30 09:34:38;;;;;;;1.30;1.00;;;16.70;58.20;;;;;;5095516;28;20623;-83
2022/05/30 09:37:06;;;;;;;0.70;0.70;;;17.00;56.80;;;;;;5109518;28;20616;-83
2022/05/30 09:39:48;;;;;;;1.00;0.70;;;16.90;56.00;;;;;;5106952;28;20630;-83
2022/05/30 09:42:30;;;;;;;1.13;0.53;;;16.70;56.70;;;;;;5107610;28;20624;-83
2022/05/30 09:45:09;;;;;;;1.00;0.50;;;16.30;56.20;;;;;;5096306;28;20930;-83
2022/05/30 09:47:36;;;;;;;0.50;0.50;;;16.20;55.30;;;;;;5107230;28;20680;-83
2022/05/30 09:50:15;;;;;;;0.60;0.50;;;16.40;55.80;;;;;;5106971;28;21014;-83
2022/05/30 09:52:43;;;;;;;4.40;0.77;;;16.40;54.60;;;;;;5091766;28;20655;-83
2022/05/30 09:55:26;;;;;;;0.77;0.63;;;16.50;55.00;;;;;;5106319;28;20631;-83
2022/05/30 09:57:55;;;;;;;0.53;0.40;;;16.80;53.50;;;;;;5098543;28;21101;-83
2022/05/30 10:00:37;;;;;;;0.53;0.40;;;17.20;55.30;;;;;;5092560;28;20608;-82
2022/05/30 10:03:11;;;;;;;0.93;0.60;;;17.50;52.10;;;;;;5091196;28;20628;-84
2022/05/30 10:05:40;;;;;;;0.50;0.47;;;17.80;52.90;;;;;;5102752;28;21251;-82
2022/05/30 10:08:30;;;;;;;0.70;0.50;;;18.00;52.70;;;;;;5103185;28;20617;-84
2022/05/30 10:10:57;;;;;;;0.63;0.57;;;17.40;51.40;;;;;;5101857;28;20635;-83
2022/05/30 10:13:35;;;;;;;1.87;0.60;;;16.90;53.30;;;;;;5088149;28;20670;-83
2022/05/30 10:16:05;;;;;;;0.57;0.57;;;16.60;53.40;;;;;;5094018;28;20993;-83
2022/05/30 10:18:36;;;;;;;0.60;0.40;;;16.20;52.90;;;;;;5110392;28;21193;-83
2022/05/30 10:21:31;;;;;;;0.50;0.50;;;16.10;52.70;;;;;;5108157;28;20679;-83
2022/05/30 10:30:03;;;;;;;1.73;1.07;;;15.20;52.10;;;;;;5104198;28;21186;-83
2022/05/30 10:32:35;;;;;;;0.40;0.30;;;15.40;53.50;;;;;;5097812;28;21245;-83
2022/05/30 10:35:12;;;;;;;0.97;0.50;;;15.40;54.70;;;;;;5109909;28;21172;-82
2022/05/30 10:38:03;;;;;;;0.40;0.30;;;15.90;53.50;;;;;;5105026;28;20663;-82
2022/05/30 10:40:50;;;;;;;0.83;0.73;;;17.20;49.10;;;;;;5095203;28;20629;-83
2022/05/30 10:43:24;;;;;;;0.70;0.57;;;17.20;49.10;;;;;;5088581;28;20842;-83
2022/05/30 10:45:55;;;;;;;1.10;1.00;;;17.70;50.40;;;;;;5104781;28;20608;-83
2022/05/30 10:48:27;;;;;;;0.40;0.40;;;17.30;48.70;;;;;;5098998;28;20632;-83
2022/05/30 10:50:59;;;;;;;0.73;0.50;;;17.20;48.20;;;;;;5096461;28;20628;-83
2022/05/30 10:53:35;;;;;;;0.60;0.60;;;17.90;50.80;;;;;;5109756;28;20659;-83
2022/05/30 10:56:13;;;;;;;0.50;0.50;;;18.60;50.80;;;;;;5100421;28;20632;-82
2022/05/30 10:58:47;;;;;;;0.87;0.70;;;19.10;47.10;;;;;;5100976;28;20651;-83
2022/05/30 11:01:25;;;;;;;0.50;0.50;;;19.30;46.00;;;;;;5088587;28;20609;-82
2022/05/30 11:04:07;;;;;;;0.63;0.60;;;19.10;48.50;;;;;;5096004;28;20737;-82
2022/05/30 11:06:37;;;;;;;0.70;0.70;;;18.50;48.50;;;;;;5109267;28;20615;-83
2022/05/30 11:09:12;;;;;;;0.60;0.60;;;18.40;47.20;;;;;;5107867;28;20639;-83
2022/05/30 11:11:46;;;;;;;1.40;0.80;;;18.80;46.40;;;;;;5101146;28;20631;-83
2022/05/30 11:14:21;;;;;;;0.97;0.80;;;19.20;45.60;;;;;;5106669;28;20623;-83
2022/05/30 11:16:51;;;;;;;0.60;0.57;;;19.60;44.20;;;;;;5103783;28;20651;-82
2022/05/30 11:19:24;;;;;;;6.63;0.50;;;20.00;44.90;;;;;;5108797;28;20604;-83
2022/05/30 11:21:59;;;;;;;0.83;0.73;;;20.60;44.50;;;;;;5108966;28;20623;-83
2022/05/30 11:24:27;;;;;;;0.60;0.50;;;20.60;43.30;;;;;;5101772;27;20629;-82
2022/05/30 11:27:17;;;;;;;0.60;0.60;;;20.60;44.30;;;;;;5102468;28;21131;-85
2022/05/30 11:30:03;;;;;;;0.53;0.53;;;21.10;43.10;;;;;;5089494;28;21135;-82
2022/05/30 11:33:03;;;;;;;0.67;0.67;;;21.50;44.30;;;;;;5088326;28;20655;-83
2022/05/30 11:35:34;;;;;;;0.70;0.70;;;21.20;42.20;;;;;;5100621;28;20630;-84
2022/05/30 11:38:28;;;;;;;0.70;0.70;;;21.70;43.00;;;;;;5102507;28;20662;-84
2022/05/30 11:41:03;;;;;;;0.43;0.43;;;22.00;43.20;;;;;;5099327;28;20631;-85
2022/05/30 11:43:44;;;;;;;0.90;0.80;;;22.40;41.30;;;;;;5095318;28;20624;-83
2022/05/30 11:46:22;;;;;;;0.50;0.50;;;22.90;40.30;;;;;;5102342;28;20666;-83
2022/05/30 11:48:57;;;;;;;1.00;0.83;;;23.10;41.50;;;;;;5106450;28;21051;-84
2022/05/30 11:51:43;;;;;;;0.70;0.70;;;23.10;41.70;;;;;;5110109;28;20723;-84
2022/05/30 11:54:37;;;;;;;0.70;0.60;;;23.90;40.50;;;;;;5110734;28;20655;-83
2022/05/30 11:57:13;;;;;;;0.83;0.80;;;23.90;40.40;;;;;;5108096;28;20692;-83
2022/05/30 12:00:10;;;;;;;0.77;0.77;;;24.40;40.00;;;;;;5108947;28;20630;-84
2022/05/30 12:03:11;;;;;;;0.50;0.50;;;24.60;40.30;;;;;;5088539;28;21156;-84
2022/05/30 12:06:13;;;;;;;0.57;0.57;;;23.90;40.40;;;;;;5100981;28;20643;-84
2022/05/30 12:09:23;;;;;;;0.97;0.80;;;24.30;38.90;;;;;;5109446;28;20642;-84
2022/05/30 12:12:10;;;;;;;0.63;0.60;;;23.00;39.70;;;;;;5099571;28;21135;-83
2022/05/30 12:15:10;;;;;;;0.70;0.70;;;22.00;40.40;;;;;;5106567;28;20631;-83
2022/05/30 12:24:37;;;;;;;0.70;0.70;;;20.00;42.20;;;;;;5093492;28;20621;-84
2022/05/30 12:27:07;;;;;;;0.80;0.70;;;20.90;38.40;;;;;;5096992;28;20632;-83
2022/05/30 12:29:49;;;;;;;0.47;0.47;;;21.00;39.30;;;;;;5112061;27;20710;-83
2022/05/30 12:32:33;;;;;;;0.77;0.77;;;22.50;39.80;;;;;;5114055;28;20706;-83
2022/05/30 12:35:27;;;;;;;0.93;0.70;;;22.50;41.80;;;;;;5091853;28;20619;-83
2022/05/30 12:38:26;;;;;;;1.17;0.80;;;24.40;39.80;;;;;;5102797;28;20698;-84
2022/05/30 12:41:17;;;;;;;0.90;0.90;;;23.10;39.00;;;;;;5100057;28;20723;-85
2022/05/30 12:43:45;;;;;;;0.70;0.67;;;22.90;39.90;;;;;;5099877;28;20650;-84
2022/05/30 12:46:18;;;;;;;0.90;0.73;;;22.80;39.50;;;;;;5113269;28;21038;-85
2022/05/30 12:49:05;;;;;;;0.97;0.60;;;22.90;40.40;;;;;;5095744;28;20652;-83
2022/05/30 12:51:42;;;;;;;0.60;0.57;;;24.50;39.90;;;;;;5110126;28;20674;-83
2022/05/30 12:54:21;;;;;;;0.73;0.60;;;26.00;37.00;;;;;;5112071;28;20666;-83
2022/05/30 12:57:10;;;;;;;0.90;0.90;;;26.60;36.60;;;;;;5094118;28;20627;-83
2022/05/30 13:00:06;;;;;;;0.73;0.73;;;27.00;35.50;;;;;;5111679;28;20662;-84
2022/05/30 13:03:15;;;;;;;0.80;0.80;;;27.10;35.10;;;;;;5097574;28;20754;-84
2022/05/30 13:06:00;;;;;;;0.60;0.60;;;27.10;34.20;;;;;;5080454;27;20213;-85
2022/05/30 13:09:00;;;;;;;0.67;0.67;;;28.50;34.30;;;;;;5107977;28;20631;-85
2022/05/30 13:11:52;;;;;;;0.87;0.87;;;28.90;35.20;;;;;;5094292;28;20737;-86
2022/05/30 13:14:27;;;;;;;0.80;0.80;;;29.70;31.90;;;;;;5106178;28;21322;-85
2022/05/30 13:16:59;;;;;;;1.07;1.00;;;29.70;33.00;;;;;;5095467;28;20641;-85
2022/05/30 13:19:26;;;;;;;0.87;0.87;;;29.30;31.90;;;;;;5091913;28;21185;-88
2022/05/30 13:21:56;;;;;;;0.60;0.60;;;30.00;31.30;;;;;;5096104;28;20933;-83
2022/05/30 13:24:31;;;;;;;0.80;0.80;;;30.50;33.00;;;;;;5092743;28;20619;-84
2022/05/30 13:26:59;;;;;;;0.90;0.90;;;30.40;31.40;;;;;;5091723;28;20611;-86
2022/05/30 13:29:34;;;;;;;0.80;0.80;;;30.00;33.00;;;;;;5100744;28;20726;-85
2022/05/30 13:32:04;;;;;;;0.77;0.63;;;29.60;31.40;;;;;;5109740;28;20712;-86
2022/05/30 13:34:32;;;;;;;1.10;0.80;;;30.00;32.40;;;;;;5110701;28;20659;-85
2022/05/30 13:37:02;;;;;;;0.80;0.80;;;30.50;32.30;;;;;;5110793;28;20723;-87
2022/05/30 13:39:30;;;;;;;0.73;0.67;;;30.70;30.70;;;;;;5110437;28;20623;-87
2022/05/30 13:41:57;;;;;;;0.97;0.97;;;28.90;29.70;;;;;;5108154;27;20715;-88
2022/05/30 13:44:29;;;;;;;0.50;0.50;;;28.80;29.90;;;;;;5111090;27;20718;-88